createdAt,value
2018-10-16T00:00:17.328Z,66.00
2018-10-16T00:02:47.403Z,66.53
2018-10-16T00:05:18.097Z,66.57
2018-10-16T00:07:47.747Z,66.18
2018-10-16T00:10:22.576Z,66.15
2018-10-16T00:12:52.208Z,66.82
2018-10-16T00:15:21.849Z,66.74
2018-10-16T00:17:51.515Z,66.96
2018-10-16T00:20:21.139Z,67.06
2018-10-16T00:22:50.980Z,66.71
2018-10-16T00:25:20.632Z,66.73
2018-10-16T00:27:50.328Z,66.67
2018-10-16T00:30:20.040Z,66.61
2018-10-16T00:32:49.734Z,66.98
2018-10-16T00:35:19.404Z,66.73
2018-10-16T00:37:49.032Z,67.22
2018-10-16T00:40:18.660Z,66.52
2018-10-16T00:42:48.376Z,67.41
2018-10-16T00:45:18.022Z,67.31
2018-10-16T00:47:47.675Z,66.72
2018-10-16T00:50:17.361Z,67.06
2018-10-16T00:52:47.004Z,67.06
2018-10-16T00:55:16.688Z,67.15
2018-10-16T00:57:46.365Z,67.75
2018-10-16T01:00:16.131Z,67.15
2018-10-16T01:02:45.807Z,67.57
2018-10-16T01:05:15.556Z,68.12
2018-10-16T01:07:45.200Z,67.29
2018-10-16T01:10:14.849Z,68.00
2018-10-16T01:12:44.543Z,68.43
2018-10-16T01:15:14.173Z,67.61
2018-10-16T01:17:43.816Z,67.55
2018-10-16T01:20:14.274Z,68.25
2018-10-16T01:22:44.176Z,67.33
2018-10-16T01:25:14.261Z,67.55
2018-10-16T01:27:43.905Z,67.81
2018-10-16T01:30:13.544Z,68.26
2018-10-16T01:32:43.237Z,67.57
2018-10-16T01:35:13.151Z,67.37
2018-10-16T01:37:43.127Z,67.35
2018-10-16T01:40:12.764Z,67.54
2018-10-16T01:42:42.428Z,67.36
2018-10-16T01:45:12.224Z,67.17
2018-10-16T01:47:41.888Z,68.10
2018-10-16T01:50:11.523Z,68.28
2018-10-16T01:52:41.208Z,68.03
2018-10-16T01:55:16.443Z,67.53
2018-10-16T01:57:46.510Z,68.40
2018-10-16T02:00:16.480Z,67.61
2018-10-16T02:02:46.728Z,67.74
2018-10-16T02:05:16.732Z,68.31
2018-10-16T02:07:46.769Z,68.10
2018-10-16T02:10:16.766Z,68.36
2018-10-16T02:12:46.713Z,68.08
2018-10-16T02:15:16.744Z,67.98
2018-10-16T02:17:46.760Z,67.84
2018-10-16T02:20:16.784Z,68.77
2018-10-16T02:22:46.814Z,68.37
2018-10-16T02:25:16.792Z,68.55
2018-10-16T02:27:46.849Z,68.10
2018-10-16T02:30:16.873Z,68.31
2018-10-16T02:32:46.872Z,68.52
2018-10-16T02:35:16.870Z,67.92
2018-10-16T02:37:46.900Z,67.84
2018-10-16T02:40:16.914Z,68.10
2018-10-16T02:42:46.964Z,68.23
2018-10-16T02:45:16.995Z,67.86
2018-10-16T02:47:46.991Z,68.88
2018-10-16T02:50:17.013Z,69.01
2018-10-16T02:52:46.929Z,68.62
2018-10-16T02:55:16.933Z,68.91
2018-10-16T02:57:47.544Z,68.89
2018-10-16T03:00:17.556Z,68.42
2018-10-16T03:02:47.476Z,68.36
2018-10-16T03:05:17.425Z,69.16
2018-10-16T03:07:47.431Z,68.58
2018-10-16T03:10:17.358Z,68.98
2018-10-16T03:12:47.364Z,68.86
2018-10-16T03:15:17.333Z,68.54
2018-10-16T03:17:47.337Z,68.89
2018-10-16T03:20:17.494Z,68.96
2018-10-16T03:22:47.542Z,68.64
2018-10-16T03:25:17.485Z,69.47
2018-10-16T03:27:47.472Z,68.73
2018-10-16T03:30:17.323Z,69.00
2018-10-16T03:32:47.373Z,69.57
2018-10-16T03:35:17.372Z,68.73
2018-10-16T03:37:47.316Z,69.36
2018-10-16T03:40:17.435Z,68.76
2018-10-16T03:42:47.352Z,68.90
2018-10-16T03:45:17.381Z,68.72
2018-10-16T03:47:47.466Z,68.86
2018-10-16T03:50:17.296Z,69.16
2018-10-16T03:52:47.334Z,69.39
2018-10-16T03:55:17.354Z,69.33
2018-10-16T03:57:47.372Z,68.67
2018-10-16T04:00:17.385Z,68.43
2018-10-16T04:02:47.309Z,68.67
2018-10-16T04:05:17.355Z,68.56
2018-10-16T04:07:47.344Z,68.56
2018-10-16T04:10:17.372Z,69.20
2018-10-16T04:12:47.384Z,69.53
2018-10-16T04:15:17.395Z,69.76
2018-10-16T04:17:47.411Z,69.74
2018-10-16T04:20:17.444Z,69.53
2018-10-16T04:22:47.556Z,69.63
2018-10-16T04:25:17.444Z,70.19
2018-10-16T04:27:47.388Z,70.34
2018-10-16T04:30:17.688Z,69.92
2018-10-16T04:32:47.748Z,69.84
2018-10-16T04:35:18.358Z,69.81
2018-10-16T04:37:48.412Z,70.21
2018-10-16T04:40:18.541Z,70.12
2018-10-16T04:42:48.558Z,70.17
2018-10-16T04:45:18.431Z,71.12
2018-10-16T04:47:48.260Z,70.90
2018-10-16T04:50:18.351Z,70.78
2018-10-16T04:52:48.444Z,70.87
2018-10-16T04:55:18.331Z,71.19
2018-10-16T04:57:48.273Z,70.55
2018-10-16T05:00:18.204Z,71.37
2018-10-16T05:02:48.185Z,71.23
2018-10-16T05:05:23.755Z,71.39
2018-10-16T05:07:54.056Z,71.55
2018-10-16T05:10:24.080Z,71.62
2018-10-16T05:12:54.125Z,71.57
2018-10-16T05:15:28.486Z,71.73
2018-10-16T05:17:58.769Z,71.51
2018-10-16T05:20:28.906Z,71.33
2018-10-16T05:23:00.060Z,71.40
2018-10-16T05:25:30.843Z,71.49
2018-10-16T05:28:00.866Z,71.97
2018-10-16T05:30:30.952Z,71.47
2018-10-16T05:33:00.907Z,71.61
2018-10-16T05:35:31.005Z,71.70
2018-10-16T05:38:01.049Z,72.03
2018-10-16T05:40:31.248Z,72.12
2018-10-16T05:43:01.368Z,72.29
2018-10-16T05:45:33.531Z,72.76
2018-10-16T05:48:03.225Z,72.75
2018-10-16T05:50:32.880Z,72.56
2018-10-16T05:53:02.717Z,73.07
2018-10-16T05:55:32.356Z,73.12
2018-10-16T05:58:02.537Z,73.24
2018-10-16T06:00:41.221Z,72.59
2018-10-16T06:03:11.025Z,73.40
2018-10-16T06:05:40.817Z,72.99
2018-10-16T06:08:10.453Z,73.16
2018-10-16T06:10:40.192Z,73.56
2018-10-16T06:13:09.854Z,73.71
2018-10-16T06:15:39.500Z,72.80
2018-10-16T06:18:09.188Z,73.39
2018-10-16T06:20:39.000Z,72.79
2018-10-16T06:23:08.768Z,72.78
2018-10-16T06:25:38.492Z,72.48
2018-10-16T06:28:21.164Z,72.79
2018-10-16T06:30:50.873Z,72.50
2018-10-16T06:33:30.217Z,72.64
2018-10-16T06:35:59.908Z,72.58
2018-10-16T06:38:29.580Z,72.75
2018-10-16T06:40:59.469Z,72.78
2018-10-16T06:43:29.036Z,72.45
2018-10-16T06:45:58.684Z,72.63
2018-10-16T06:48:28.566Z,72.01
2018-10-16T06:50:58.091Z,72.53
2018-10-16T06:53:27.817Z,72.95
2018-10-16T06:55:57.488Z,73.23
2018-10-16T06:58:27.148Z,72.71
2018-10-16T07:00:56.788Z,73.24
2018-10-16T07:03:26.488Z,73.08
2018-10-16T07:05:56.155Z,73.39
2018-10-16T07:08:26.627Z,73.43
2018-10-16T07:10:56.440Z,72.73
2018-10-16T07:13:26.380Z,73.15
2018-10-16T07:15:56.121Z,73.01
2018-10-16T07:18:25.793Z,72.88
2018-10-16T07:20:55.503Z,73.19
2018-10-16T07:23:25.300Z,72.65
2018-10-16T07:25:54.908Z,72.98
2018-10-16T07:28:24.868Z,72.65
2018-10-16T07:30:54.541Z,72.91
2018-10-16T07:33:24.228Z,73.03
2018-10-16T07:35:53.893Z,72.30
2018-10-16T07:38:23.588Z,71.79
2018-10-16T07:40:53.305Z,72.47
2018-10-16T07:43:22.968Z,72.12
2018-10-16T07:45:52.635Z,71.91
2018-10-16T07:48:22.342Z,72.62
2018-10-16T07:50:51.994Z,72.15
2018-10-16T07:53:21.648Z,72.68
2018-10-16T07:55:51.389Z,72.22
2018-10-16T07:58:21.062Z,72.13
2018-10-16T08:00:50.720Z,72.66
2018-10-16T08:03:20.432Z,71.26
2018-10-16T08:05:50.106Z,71.19
2018-10-16T08:08:19.929Z,70.95
2018-10-16T08:10:49.639Z,71.14
2018-10-16T08:13:19.295Z,71.13
2018-10-16T08:15:48.958Z,70.50
2018-10-16T08:18:18.657Z,70.28
2018-10-16T08:20:48.309Z,69.74
2018-10-16T08:23:17.966Z,69.18
2018-10-16T08:25:47.667Z,69.65
2018-10-16T08:28:17.517Z,69.48
2018-10-16T08:30:47.221Z,70.03
2018-10-16T08:33:16.902Z,70.23
2018-10-16T08:35:46.561Z,70.37
2018-10-16T08:38:52.608Z,68.76
2018-10-16T08:41:28.365Z,69.05
2018-10-16T08:44:39.834Z,68.45
2018-10-16T08:47:20.439Z,68.41
2018-10-16T08:50:01.148Z,68.70
2018-10-16T08:52:30.796Z,68.33
2018-10-16T08:55:00.464Z,67.48
2018-10-16T08:57:30.192Z,67.47
2018-10-16T08:59:59.847Z,68.23
2018-10-16T09:02:29.522Z,69.01
2018-10-16T09:04:59.235Z,69.37
2018-10-16T09:07:28.889Z,67.87
2018-10-16T09:09:58.564Z,68.81
2018-10-16T09:12:28.268Z,68.58
2018-10-16T09:14:57.927Z,68.83
2018-10-16T09:17:27.585Z,68.55
2018-10-16T09:19:57.269Z,67.12
2018-10-16T09:22:26.914Z,66.57
2018-10-16T09:24:56.622Z,66.50
2018-10-16T09:27:26.324Z,66.39
2018-10-16T09:29:56.060Z,66.74
2018-10-16T09:32:25.932Z,66.95
2018-10-16T09:34:55.612Z,67.05
2018-10-16T09:37:25.298Z,68.16
2018-10-16T09:39:54.977Z,68.63
2018-10-16T09:42:24.696Z,67.41
2018-10-16T09:44:54.360Z,66.14
2018-10-16T09:47:24.044Z,66.43
2018-10-16T09:49:53.824Z,66.38
2018-10-16T09:52:23.547Z,65.39
2018-10-16T09:54:53.248Z,66.20
2018-10-16T09:57:22.913Z,65.49
2018-10-16T09:59:52.561Z,65.70
2018-10-16T10:02:22.256Z,65.43
2018-10-16T10:04:51.935Z,64.52
2018-10-16T10:07:21.672Z,64.53
2018-10-16T10:09:51.392Z,65.24
2018-10-16T10:12:21.055Z,63.76
2018-10-16T10:14:50.740Z,62.09
2018-10-16T10:17:20.464Z,60.58
2018-10-16T10:19:50.113Z,59.98
2018-10-16T10:22:19.796Z,59.28
2018-10-16T10:24:49.512Z,59.05
2018-10-16T10:27:19.188Z,58.64
2018-10-16T10:29:48.943Z,57.79
2018-10-16T10:32:18.600Z,59.06
2018-10-16T10:34:48.275Z,57.81
2018-10-16T10:37:17.925Z,56.89
2018-10-16T10:39:47.652Z,56.54
2018-10-16T10:42:17.409Z,56.34
2018-10-16T10:44:47.086Z,56.49
2018-10-16T10:47:16.745Z,55.40
2018-10-16T10:49:46.444Z,54.86
2018-10-16T10:52:16.168Z,55.48
2018-10-16T10:54:45.808Z,55.17
2018-10-16T10:57:15.557Z,55.88
2018-10-16T10:59:45.228Z,55.62
2018-10-16T11:02:14.863Z,54.13
2018-10-16T11:04:44.539Z,55.66
2018-10-16T11:07:14.221Z,54.47
2018-10-16T11:09:43.856Z,54.14
2018-10-16T11:12:13.516Z,54.29
2018-10-16T11:14:43.319Z,52.36
2018-10-16T11:17:12.993Z,53.57
2018-10-16T11:19:42.661Z,53.17
2018-10-16T11:22:12.385Z,53.29
2018-10-16T11:24:42.121Z,52.54
2018-10-16T11:27:11.864Z,52.79
2018-10-16T11:29:41.506Z,52.16
2018-10-16T11:32:11.174Z,51.59
2018-10-16T11:34:40.825Z,52.46
2018-10-16T11:37:10.592Z,53.21
2018-10-16T11:39:40.210Z,52.58
2018-10-16T11:42:09.864Z,52.22
2018-10-16T11:44:39.580Z,53.27
2018-10-16T11:47:09.266Z,52.75
2018-10-16T11:49:38.924Z,54.08
2018-10-16T11:52:08.637Z,54.46
2018-10-16T11:54:38.292Z,53.76
2018-10-16T11:57:07.972Z,52.67
2018-10-16T11:59:37.672Z,52.69
2018-10-16T12:02:07.384Z,51.19
2018-10-16T12:04:37.233Z,50.52
2018-10-16T12:07:07.042Z,50.77
2018-10-16T12:09:36.628Z,50.63
2018-10-16T12:12:06.525Z,51.74
2018-10-16T12:14:36.208Z,51.74
2018-10-16T12:18:12.317Z,50.94
2018-10-16T12:20:46.052Z,50.94
2018-10-16T12:23:15.808Z,51.25
2018-10-16T12:25:45.517Z,51.42
2018-10-16T12:28:15.225Z,50.20
2018-10-16T12:30:44.920Z,50.74
2018-10-16T12:33:14.734Z,51.61
2018-10-16T12:35:44.307Z,51.11
2018-10-16T12:38:14.028Z,51.54
2018-10-16T12:40:43.801Z,51.79
2018-10-16T12:43:13.601Z,52.24
2018-10-16T12:45:43.233Z,50.80
2018-10-16T12:48:12.994Z,50.86
2018-10-16T12:50:42.633Z,50.21
2018-10-16T12:53:12.394Z,49.44
2018-10-16T12:55:42.067Z,49.78
2018-10-16T12:58:11.752Z,49.09
2018-10-16T13:00:41.396Z,48.67
2018-10-16T13:03:11.157Z,48.68
2018-10-16T13:05:40.797Z,49.31
2018-10-16T13:08:10.634Z,50.29
2018-10-16T13:10:40.171Z,49.03
2018-10-16T13:13:09.825Z,49.01
2018-10-16T13:15:39.472Z,50.04
2018-10-16T13:18:09.225Z,49.26
2018-10-16T13:20:38.900Z,48.97
2018-10-16T13:23:08.650Z,49.06
2018-10-16T13:25:38.386Z,50.97
2018-10-16T13:28:07.649Z,50.18
2018-10-16T13:30:37.283Z,50.04
2018-10-16T13:33:06.997Z,49.06
2018-10-16T13:35:36.664Z,49.62
2018-10-16T13:38:06.457Z,49.13
2018-10-16T13:40:36.132Z,48.03
2018-10-16T13:43:05.984Z,49.26
2018-10-16T13:45:35.684Z,48.56
2018-10-16T13:48:06.017Z,48.14
2018-10-16T13:50:35.716Z,47.06
2018-10-16T13:53:05.573Z,48.60
2018-10-16T13:55:35.263Z,49.06
2018-10-16T13:58:04.989Z,48.70
2018-10-16T14:00:34.640Z,48.94
2018-10-16T14:03:04.368Z,50.21
2018-10-16T14:05:34.118Z,50.25
2018-10-16T14:08:03.851Z,50.49
2018-10-16T14:10:33.532Z,50.62
2018-10-16T14:13:03.190Z,49.41
2018-10-16T14:15:32.845Z,50.94
2018-10-16T14:18:02.611Z,49.31
2018-10-16T14:20:32.275Z,49.38
2018-10-16T14:23:01.944Z,48.97
2018-10-16T14:25:31.677Z,48.63
2018-10-16T14:28:01.444Z,48.57
2018-10-16T14:30:31.208Z,48.47
2018-10-16T14:33:00.853Z,47.88
2018-10-16T14:35:30.515Z,48.34
2018-10-16T14:38:00.256Z,48.64
2018-10-16T14:40:29.931Z,48.53
2018-10-16T14:42:59.716Z,50.42
2018-10-16T14:45:29.357Z,50.74
2018-10-16T14:47:59.105Z,51.29
2018-10-16T14:50:28.726Z,51.90
2018-10-16T14:52:58.396Z,52.57
2018-10-16T14:55:28.060Z,53.44
2018-10-16T14:57:57.741Z,54.20
2018-10-16T15:00:27.417Z,54.49
2018-10-16T15:02:57.085Z,54.39
2018-10-16T15:05:26.743Z,54.21
2018-10-16T15:07:56.461Z,53.80
2018-10-16T15:10:26.171Z,55.07
2018-10-16T15:12:55.823Z,55.54
2018-10-16T15:15:25.475Z,54.84
2018-10-16T15:17:55.140Z,55.51
2018-10-16T15:20:24.798Z,55.30
2018-10-16T15:22:54.492Z,55.86
2018-10-16T15:25:24.173Z,56.20
2018-10-16T15:27:53.833Z,56.92
2018-10-16T15:30:23.514Z,57.89
2018-10-16T15:32:53.193Z,57.65
2018-10-16T15:35:22.836Z,57.22
2018-10-16T15:37:52.502Z,57.51
2018-10-16T15:40:22.158Z,58.01
2018-10-16T15:42:51.845Z,58.14
2018-10-16T15:45:21.503Z,58.88
2018-10-16T15:47:51.274Z,59.56
2018-10-16T15:50:20.893Z,59.47
2018-10-16T15:52:50.603Z,59.11
2018-10-16T15:55:20.245Z,60.10
2018-10-16T15:57:49.996Z,60.22
2018-10-16T16:00:19.613Z,59.81
2018-10-16T16:02:49.298Z,60.39
2018-10-16T16:05:18.935Z,60.21
2018-10-16T16:07:48.620Z,60.39
2018-10-16T16:10:18.307Z,60.27
2018-10-16T16:12:47.996Z,60.27
2018-10-16T16:15:17.681Z,60.15
2018-10-16T16:17:47.410Z,61.23
2018-10-16T16:20:17.089Z,61.84
2018-10-16T16:22:46.776Z,63.02
2018-10-16T16:25:16.641Z,63.24
2018-10-16T16:27:46.349Z,62.48
2018-10-16T16:30:16.813Z,62.59
2018-10-16T16:32:46.536Z,62.92
2018-10-16T16:35:16.193Z,63.29
2018-10-16T16:37:45.867Z,63.39
2018-10-16T16:40:17.376Z,63.44
2018-10-16T16:42:49.789Z,64.75
2018-10-16T16:45:19.472Z,64.13
2018-10-16T16:47:49.193Z,64.13
2018-10-16T16:50:18.865Z,63.86
2018-10-16T16:52:48.552Z,64.66
2018-10-16T16:55:18.936Z,64.22
2018-10-16T16:57:48.640Z,64.46
2018-10-16T17:00:18.308Z,65.19
2018-10-16T17:02:47.993Z,64.64
2018-10-16T17:05:17.674Z,64.66
2018-10-16T17:07:47.380Z,65.02
2018-10-16T17:10:17.048Z,65.47
2018-10-16T17:12:46.697Z,65.78
2018-10-16T17:15:16.974Z,65.45
2018-10-16T17:17:47.314Z,65.46
2018-10-16T17:20:17.365Z,65.60
2018-10-16T17:22:47.052Z,65.75
2018-10-16T17:25:16.897Z,65.94
2018-10-16T17:27:46.501Z,65.79
2018-10-16T17:30:17.268Z,65.78
2018-10-16T17:32:47.084Z,65.63
2018-10-16T17:35:16.744Z,66.11
2018-10-16T17:37:46.402Z,66.10
2018-10-16T17:40:17.390Z,65.66
2018-10-16T17:42:47.048Z,65.75
2018-10-16T17:45:17.746Z,65.44
2018-10-16T17:47:47.497Z,65.50
2018-10-16T17:50:18.704Z,66.83
2018-10-16T17:52:48.380Z,67.39
2018-10-16T17:55:18.141Z,67.03
2018-10-16T17:57:47.853Z,67.11
2018-10-16T18:00:18.990Z,68.06
2018-10-16T18:02:48.699Z,67.88
2018-10-16T18:05:18.484Z,68.00
2018-10-16T18:07:48.149Z,67.97
2018-10-16T18:10:17.820Z,68.55
2018-10-16T18:12:47.545Z,67.86
2018-10-16T18:15:17.214Z,68.20
2018-10-16T18:17:46.890Z,68.50
2018-10-16T18:20:17.232Z,68.00
2018-10-16T18:22:47.084Z,68.59
2018-10-16T18:25:16.773Z,68.45
2018-10-16T18:27:46.901Z,68.35
2018-10-16T18:30:16.592Z,68.37
2018-10-16T18:32:46.305Z,68.37
2018-10-16T18:35:16.008Z,68.77
2018-10-16T18:37:45.780Z,69.12
2018-10-16T18:40:15.612Z,70.16
2018-10-16T18:42:45.384Z,70.19
2018-10-16T18:45:15.548Z,71.09
2018-10-16T18:47:45.184Z,70.36
2018-10-16T18:50:15.464Z,69.86
2018-10-16T18:52:45.768Z,70.24
2018-10-16T18:55:16.028Z,69.71
2018-10-16T18:57:45.984Z,70.11
2018-10-16T19:00:17.656Z,70.94
2018-10-16T19:02:47.985Z,70.50
2018-10-16T19:05:17.673Z,69.91
2018-10-16T19:07:47.431Z,69.91
2018-10-16T19:10:17.071Z,69.78
2018-10-16T19:12:46.763Z,70.07
2018-10-16T19:15:17.879Z,70.12
2018-10-16T19:17:47.696Z,71.12
2018-10-16T19:20:17.956Z,70.92
2018-10-16T19:22:47.820Z,70.89
2018-10-16T19:25:19.140Z,70.34
2018-10-16T19:27:48.860Z,71.15
2018-10-16T19:30:18.544Z,71.06
2018-10-16T19:32:48.272Z,71.38
2018-10-16T19:35:17.925Z,72.41
2018-10-16T19:37:47.660Z,71.54
2018-10-16T19:40:17.347Z,71.56
2018-10-16T19:42:47.011Z,71.68
2018-10-16T19:45:16.817Z,71.77
2018-10-16T19:47:46.476Z,71.29
2018-10-16T19:50:16.182Z,71.41
2018-10-16T19:52:45.849Z,71.79
2018-10-16T19:55:15.573Z,71.28
2018-10-16T19:57:45.228Z,72.15
2018-10-16T20:00:14.993Z,71.87
2018-10-16T20:02:44.680Z,71.55
2018-10-16T20:05:14.437Z,71.46
2018-10-16T20:07:44.099Z,71.93
2018-10-16T20:10:13.780Z,71.79
2018-10-16T20:12:43.500Z,72.82
2018-10-16T20:15:13.713Z,72.84
2018-10-16T20:17:43.796Z,72.14
2018-10-16T20:20:13.891Z,72.82
2018-10-16T20:22:43.571Z,72.89
2018-10-16T20:25:13.343Z,72.91
2018-10-16T20:27:43.012Z,72.64
2018-10-16T20:30:12.908Z,72.47
2018-10-16T20:32:42.824Z,72.97
2018-10-16T20:35:12.785Z,73.12
2018-10-16T20:37:42.729Z,72.52
2018-10-16T20:40:12.397Z,73.32
2018-10-16T20:42:42.164Z,72.89
2018-10-16T20:45:12.772Z,73.93
2018-10-16T20:47:42.547Z,74.23
2018-10-16T20:50:12.577Z,74.45
2018-10-16T20:52:42.260Z,74.63
2018-10-16T20:55:12.039Z,75.83
2018-10-16T20:57:41.700Z,76.29
2018-10-16T21:00:11.352Z,75.72
2018-10-16T21:02:41.148Z,75.97
2018-10-16T21:05:11.079Z,76.39
2018-10-16T21:07:40.597Z,75.80
2018-10-16T21:10:10.468Z,76.13
2018-10-16T21:12:40.118Z,76.00
2018-10-16T21:15:10.578Z,76.07
2018-10-16T21:17:40.243Z,76.26
2018-10-16T21:20:10.466Z,76.27
2018-10-16T21:22:40.124Z,76.55
2018-10-16T21:25:10.248Z,76.24
2018-10-16T21:27:39.843Z,76.67
2018-10-16T21:30:10.162Z,77.29
2018-10-16T21:32:39.832Z,77.49
2018-10-16T21:35:09.572Z,76.63
2018-10-16T21:37:40.171Z,76.60
2018-10-16T21:40:10.107Z,76.52
2018-10-16T21:42:39.782Z,76.33
2018-10-16T21:45:09.520Z,76.73
2018-10-16T21:47:39.164Z,76.64
2018-10-16T21:50:08.872Z,76.36
2018-10-16T21:52:38.563Z,76.45
2018-10-16T21:55:08.323Z,77.27
2018-10-16T21:57:37.971Z,77.01
2018-10-16T22:00:13.048Z,77.84
2018-10-16T22:02:48.725Z,77.19
2018-10-16T22:05:23.851Z,77.12
2018-10-16T22:07:54.905Z,77.41
2018-10-16T22:10:24.924Z,76.57
2018-10-16T22:12:54.604Z,76.91
2018-10-16T22:15:24.342Z,77.58
2018-10-16T22:17:54.000Z,77.69
2018-10-16T22:20:23.684Z,77.80
2018-10-16T22:22:53.418Z,76.82
2018-10-16T22:25:23.061Z,77.46
2018-10-16T22:27:52.711Z,76.81
2018-10-16T22:30:22.431Z,76.78
2018-10-16T22:32:52.097Z,77.50
2018-10-16T22:35:21.771Z,76.79
2018-10-16T22:37:51.499Z,76.99
2018-10-16T22:40:21.165Z,76.94
2018-10-16T22:42:50.924Z,76.64
2018-10-16T22:45:20.600Z,77.92
2018-10-16T22:47:50.276Z,77.31
2018-10-16T22:50:19.906Z,78.17
2018-10-16T22:52:49.616Z,78.34
2018-10-16T22:55:19.266Z,77.70
2018-10-16T22:57:48.951Z,77.59
2018-10-16T23:00:19.694Z,78.33
2018-10-16T23:02:49.667Z,78.69
2018-10-16T23:05:19.361Z,79.04
2018-10-16T23:07:49.039Z,78.27
2018-10-16T23:10:18.740Z,78.47
2018-10-16T23:12:53.877Z,79.34
2018-10-16T23:15:23.516Z,78.93
2018-10-16T23:17:53.240Z,78.48
2018-10-16T23:20:23.007Z,79.03
2018-10-16T23:22:52.901Z,78.33
2018-10-16T23:25:22.895Z,79.66
2018-10-16T23:27:52.665Z,79.26
2018-10-16T23:30:22.364Z,80.54
2018-10-16T23:32:52.009Z,80.38
2018-10-16T23:35:21.670Z,80.39
2018-10-16T23:37:51.373Z,80.62
2018-10-16T23:40:21.040Z,81.22
2018-10-16T23:42:50.701Z,81.45
2018-10-16T23:45:20.435Z,81.91
2018-10-16T23:47:50.152Z,81.56
2018-10-16T23:50:19.847Z,81.24
2018-10-16T23:52:49.560Z,82.11
2018-10-16T23:55:19.197Z,81.43
2018-10-16T23:57:48.850Z,81.72
